sensor_id;sensor_type;location;lat;lon;timestamp;P1;durP1;ratioP1;P2;durP2;ratioP2
66145;SDS011;52948;60.040;30.320;2023-10-31T00:00:47;9.88;;;4.13;;
66145;SDS011;52948;60.040;30.320;2023-10-31T00:05:50;7.78;;;4.30;;
66145;SDS011;52948;60.040;30.320;2023-10-31T00:10:52;5.95;;;3.55;;
66145;SDS011;52948;60.040;30.320;2023-10-31T00:15:54;6.25;;;3.20;;
66145;SDS011;52948;60.040;30.320;2023-10-31T00:20:56;7.18;;;3.05;;
66145;SDS011;52948;60.040;30.320;2023-10-31T00:25:58;7.18;;;3.55;;
66145;SDS011;52948;60.040;30.320;2023-10-31T00:31:01;8.63;;;3.75;;
66145;SDS011;52948;60.040;30.320;2023-10-31T00:36:03;7.55;;;2.88;;
66145;SDS011;52948;60.040;30.320;2023-10-31T00:41:05;8.50;;;4.88;;
66145;SDS011;52948;60.040;30.320;2023-10-31T00:46:08;6.55;;;3.70;;
66145;SDS011;52948;60.040;30.320;2023-10-31T00:51:10;6.28;;;3.47;;
66145;SDS011;52948;60.040;30.320;2023-10-31T00:56:13;6.38;;;4.20;;
66145;SDS011;52948;60.040;30.320;2023-10-31T01:01:15;4.95;;;3.63;;
66145;SDS011;52948;60.040;30.320;2023-10-31T01:06:17;8.90;;;3.63;;
66145;SDS011;52948;60.040;30.320;2023-10-31T01:11:19;4.20;;;3.25;;
66145;SDS011;52948;60.040;30.320;2023-10-31T01:16:22;6.65;;;3.50;;
66145;SDS011;52948;60.040;30.320;2023-10-31T01:21:24;6.40;;;3.60;;
66145;SDS011;52948;60.040;30.320;2023-10-31T01:26:26;7.75;;;3.53;;
66145;SDS011;52948;60.040;30.320;2023-10-31T01:31:29;6.43;;;3.22;;
66145;SDS011;52948;60.040;30.320;2023-10-31T01:36:32;7.50;;;4.50;;
66145;SDS011;52948;60.040;30.320;2023-10-31T01:41:34;7.05;;;4.18;;
66145;SDS011;52948;60.040;30.320;2023-10-31T01:46:36;6.75;;;4.40;;
66145;SDS011;52948;60.040;30.320;2023-10-31T01:51:42;9.15;;;4.15;;
66145;SDS011;52948;60.040;30.320;2023-10-31T01:56:48;7.07;;;4.15;;
66145;SDS011;52948;60.040;30.320;2023-10-31T02:01:53;8.57;;;5.05;;
66145;SDS011;52948;60.040;30.320;2023-10-31T02:06:57;10.13;;;4.88;;
66145;SDS011;52948;60.040;30.320;2023-10-31T02:11:59;7.85;;;4.28;;
66145;SDS011;52948;60.040;30.320;2023-10-31T02:17:01;5.45;;;3.70;;
66145;SDS011;52948;60.040;30.320;2023-10-31T02:22:04;6.40;;;3.95;;
66145;SDS011;52948;60.040;30.320;2023-10-31T02:27:06;9.52;;;4.28;;
66145;SDS011;52948;60.040;30.320;2023-10-31T02:32:09;8.73;;;4.85;;
66145;SDS011;52948;60.040;30.320;2023-10-31T02:37:11;11.70;;;5.15;;
66145;SDS011;52948;60.040;30.320;2023-10-31T02:42:15;13.93;;;5.00;;
66145;SDS011;52948;60.040;30.320;2023-10-31T02:47:17;7.40;;;5.00;;
66145;SDS011;52948;60.040;30.320;2023-10-31T02:52:20;8.40;;;4.60;;
66145;SDS011;52948;60.040;30.320;2023-10-31T02:57:22;9.30;;;5.22;;
66145;SDS011;52948;60.040;30.320;2023-10-31T03:02:25;10.05;;;4.32;;
66145;SDS011;52948;60.040;30.320;2023-10-31T03:07:28;7.63;;;4.63;;
66145;SDS011;52948;60.040;30.320;2023-10-31T03:12:31;8.40;;;4.55;;
66145;SDS011;52948;60.040;30.320;2023-10-31T03:17:34;10.00;;;5.30;;
66145;SDS011;52948;60.040;30.320;2023-10-31T03:22:37;7.45;;;4.78;;
66145;SDS011;52948;60.040;30.320;2023-10-31T03:27:40;9.82;;;5.07;;
66145;SDS011;52948;60.040;30.320;2023-10-31T03:32:43;11.35;;;4.72;;
66145;SDS011;52948;60.040;30.320;2023-10-31T03:37:46;8.55;;;5.18;;
66145;SDS011;52948;60.040;30.320;2023-10-31T03:42:50;8.15;;;5.00;;
66145;SDS011;52948;60.040;30.320;2023-10-31T03:47:53;8.00;;;5.07;;
66145;SDS011;52948;60.040;30.320;2023-10-31T03:52:56;7.35;;;4.28;;
66145;SDS011;52948;60.040;30.320;2023-10-31T03:57:59;7.25;;;4.30;;
66145;SDS011;52948;60.040;30.320;2023-10-31T04:03:01;8.20;;;4.50;;
66145;SDS011;52948;60.040;30.320;2023-10-31T04:08:04;9.00;;;4.35;;
66145;SDS011;52948;60.040;30.320;2023-10-31T04:13:07;9.05;;;4.72;;
66145;SDS011;52948;60.040;30.320;2023-10-31T04:18:09;6.28;;;3.60;;
66145;SDS011;52948;60.040;30.320;2023-10-31T04:23:12;6.13;;;3.58;;
66145;SDS011;52948;60.040;30.320;2023-10-31T04:28:18;9.23;;;4.47;;
66145;SDS011;52948;60.040;30.320;2023-10-31T04:33:20;6.57;;;3.80;;
66145;SDS011;52948;60.040;30.320;2023-10-31T04:38:23;5.97;;;3.17;;
66145;SDS011;52948;60.040;30.320;2023-10-31T04:43:26;8.15;;;4.20;;
66145;SDS011;52948;60.040;30.320;2023-10-31T04:48:28;6.75;;;3.53;;
66145;SDS011;52948;60.040;30.320;2023-10-31T04:53:30;8.70;;;3.97;;
66145;SDS011;52948;60.040;30.320;2023-10-31T04:58:34;6.72;;;3.33;;
66145;SDS011;52948;60.040;30.320;2023-10-31T05:03:37;9.10;;;4.07;;
66145;SDS011;52948;60.040;30.320;2023-10-31T05:08:39;7.07;;;3.63;;
66145;SDS011;52948;60.040;30.320;2023-10-31T05:13:44;8.48;;;4.20;;
66145;SDS011;52948;60.040;30.320;2023-10-31T05:18:47;6.38;;;4.10;;
66145;SDS011;52948;60.040;30.320;2023-10-31T05:23:49;7.90;;;4.03;;
66145;SDS011;52948;60.040;30.320;2023-10-31T05:28:56;6.28;;;4.03;;
66145;SDS011;52948;60.040;30.320;2023-10-31T05:34:00;6.10;;;3.60;;
66145;SDS011;52948;60.040;30.320;2023-10-31T05:39:02;5.78;;;3.85;;
66145;SDS011;52948;60.040;30.320;2023-10-31T05:44:06;7.35;;;3.42;;
66145;SDS011;52948;60.040;30.320;2023-10-31T05:49:08;7.80;;;3.70;;
66145;SDS011;52948;60.040;30.320;2023-10-31T05:54:12;6.45;;;3.65;;
66145;SDS011;52948;60.040;30.320;2023-10-31T05:59:14;6.32;;;3.47;;
66145;SDS011;52948;60.040;30.320;2023-10-31T06:04:16;5.82;;;3.40;;
66145;SDS011;52948;60.040;30.320;2023-10-31T06:09:19;6.05;;;3.25;;
66145;SDS011;52948;60.040;30.320;2023-10-31T06:14:21;7.35;;;3.13;;
66145;SDS011;52948;60.040;30.320;2023-10-31T06:19:23;3.10;;;2.42;;
66145;SDS011;52948;60.040;30.320;2023-10-31T06:24:25;3.30;;;2.13;;
66145;SDS011;52948;60.040;30.320;2023-10-31T06:29:28;7.70;;;2.75;;
66145;SDS011;52948;60.040;30.320;2023-10-31T06:34:30;2.85;;;2.08;;
66145;SDS011;52948;60.040;30.320;2023-10-31T06:39:33;4.07;;;3.25;;
66145;SDS011;52948;60.040;30.320;2023-10-31T06:44:35;4.25;;;2.55;;
66145;SDS011;52948;60.040;30.320;2023-10-31T06:49:37;4.10;;;3.17;;
66145;SDS011;52948;60.040;30.320;2023-10-31T06:54:39;3.78;;;2.45;;
66145;SDS011;52948;60.040;30.320;2023-10-31T06:59:42;4.20;;;3.00;;
66145;SDS011;52948;60.040;30.320;2023-10-31T07:04:44;1.77;;;1.33;;
66145;SDS011;52948;60.040;30.320;2023-10-31T07:09:46;3.53;;;2.15;;
66145;SDS011;52948;60.040;30.320;2023-10-31T07:14:48;4.20;;;3.28;;
66145;SDS011;52948;60.040;30.320;2023-10-31T07:19:51;2.55;;;1.98;;
66145;SDS011;52948;60.040;30.320;2023-10-31T07:24:53;3.53;;;2.58;;
66145;SDS011;52948;60.040;30.320;2023-10-31T07:29:55;2.97;;;2.00;;
66145;SDS011;52948;60.040;30.320;2023-10-31T07:34:57;4.35;;;2.90;;
66145;SDS011;52948;60.040;30.320;2023-10-31T07:40:00;3.55;;;2.10;;
66145;SDS011;52948;60.040;30.320;2023-10-31T07:45:02;4.38;;;2.85;;
66145;SDS011;52948;60.040;30.320;2023-10-31T07:50:05;4.30;;;2.30;;
66145;SDS011;52948;60.040;30.320;2023-10-31T07:55:08;6.00;;;2.95;;
66145;SDS011;52948;60.040;30.320;2023-10-31T08:00:10;4.90;;;3.38;;
66145;SDS011;52948;60.040;30.320;2023-10-31T08:05:16;3.20;;;2.45;;
66145;SDS011;52948;60.040;30.320;2023-10-31T08:10:19;4.35;;;3.30;;
66145;SDS011;52948;60.040;30.320;2023-10-31T08:15:21;3.50;;;2.33;;
66145;SDS011;52948;60.040;30.320;2023-10-31T08:20:24;1.73;;;1.63;;
66145;SDS011;52948;60.040;30.320;2023-10-31T08:25:26;4.68;;;3.35;;
66145;SDS011;52948;60.040;30.320;2023-10-31T08:30:28;5.45;;;2.20;;
66145;SDS011;52948;60.040;30.320;2023-10-31T08:35:31;6.38;;;3.35;;
66145;SDS011;52948;60.040;30.320;2023-10-31T08:40:33;4.72;;;3.30;;
66145;SDS011;52948;60.040;30.320;2023-10-31T08:45:35;4.38;;;2.50;;
66145;SDS011;52948;60.040;30.320;2023-10-31T08:50:37;5.35;;;2.92;;
66145;SDS011;52948;60.040;30.320;2023-10-31T08:55:40;5.72;;;2.42;;
66145;SDS011;52948;60.040;30.320;2023-10-31T09:00:45;4.57;;;3.05;;
66145;SDS011;52948;60.040;30.320;2023-10-31T09:05:47;1.33;;;1.17;;
66145;SDS011;52948;60.040;30.320;2023-10-31T09:10:50;7.25;;;2.85;;
66145;SDS011;52948;60.040;30.320;2023-10-31T09:15:52;4.85;;;2.95;;
66145;SDS011;52948;60.040;30.320;2023-10-31T09:20:54;6.32;;;3.30;;
66145;SDS011;52948;60.040;30.320;2023-10-31T09:25:57;6.13;;;3.10;;
66145;SDS011;52948;60.040;30.320;2023-10-31T09:31:00;4.03;;;2.67;;
66145;SDS011;52948;60.040;30.320;2023-10-31T09:36:05;4.97;;;2.70;;
66145;SDS011;52948;60.040;30.320;2023-10-31T09:41:09;5.90;;;2.95;;
66145;SDS011;52948;60.040;30.320;2023-10-31T09:46:11;5.50;;;3.50;;
66145;SDS011;52948;60.040;30.320;2023-10-31T09:51:14;2.05;;;1.55;;
66145;SDS011;52948;60.040;30.320;2023-10-31T09:56:16;8.32;;;4.53;;
66145;SDS011;52948;60.040;30.320;2023-10-31T10:01:19;7.25;;;3.33;;
66145;SDS011;52948;60.040;30.320;2023-10-31T10:06:21;4.00;;;2.33;;
66145;SDS011;52948;60.040;30.320;2023-10-31T10:11:25;6.95;;;2.75;;
66145;SDS011;52948;60.040;30.320;2023-10-31T10:16:29;8.93;;;3.92;;
66145;SDS011;52948;60.040;30.320;2023-10-31T10:21:43;4.55;;;3.13;;
66145;SDS011;52948;60.040;30.320;2023-10-31T10:26:56;5.93;;;3.17;;
66145;SDS011;52948;60.040;30.320;2023-10-31T10:31:58;3.75;;;2.10;;
66145;SDS011;52948;60.040;30.320;2023-10-31T10:37:03;2.05;;;1.55;;
66145;SDS011;52948;60.040;30.320;2023-10-31T10:42:09;5.75;;;3.05;;
66145;SDS011;52948;60.040;30.320;2023-10-31T10:47:13;5.50;;;3.28;;
66145;SDS011;52948;60.040;30.320;2023-10-31T10:52:17;6.15;;;3.67;;
66145;SDS011;52948;60.040;30.320;2023-10-31T11:02:28;5.50;;;3.22;;
66145;SDS011;52948;60.040;30.320;2023-10-31T11:07:32;2.53;;;1.65;;
66145;SDS011;52948;60.040;30.320;2023-10-31T11:12:34;6.45;;;3.35;;
66145;SDS011;52948;60.040;30.320;2023-10-31T11:17:40;7.22;;;2.45;;
66145;SDS011;52948;60.040;30.320;2023-10-31T11:22:44;7.20;;;3.08;;
66145;SDS011;52948;60.040;30.320;2023-10-31T11:27:47;6.65;;;2.25;;
66145;SDS011;52948;60.040;30.320;2023-10-31T11:32:52;4.93;;;2.90;;
66145;SDS011;52948;60.040;30.320;2023-10-31T11:38:05;5.65;;;3.10;;
66145;SDS011;52948;60.040;30.320;2023-10-31T11:43:11;4.55;;;2.63;;
66145;SDS011;52948;60.040;30.320;2023-10-31T11:48:14;9.55;;;3.10;;
66145;SDS011;52948;60.040;30.320;2023-10-31T11:53:17;1.95;;;1.38;;
66145;SDS011;52948;60.040;30.320;2023-10-31T11:58:23;5.15;;;2.90;;
66145;SDS011;52948;60.040;30.320;2023-10-31T12:03:27;5.65;;;2.97;;
66145;SDS011;52948;60.040;30.320;2023-10-31T12:08:30;6.28;;;2.20;;
66145;SDS011;52948;60.040;30.320;2023-10-31T12:13:40;3.65;;;2.60;;
66145;SDS011;52948;60.040;30.320;2023-10-31T12:18:58;8.60;;;3.13;;
66145;SDS011;52948;60.040;30.320;2023-10-31T12:24:03;1.42;;;1.33;;
66145;SDS011;52948;60.040;30.320;2023-10-31T12:29:19;3.05;;;2.15;;
66145;SDS011;52948;60.040;30.320;2023-10-31T12:34:23;3.17;;;1.77;;
66145;SDS011;52948;60.040;30.320;2023-10-31T12:39:27;5.30;;;2.20;;
66145;SDS011;52948;60.040;30.320;2023-10-31T12:44:31;4.13;;;2.80;;
66145;SDS011;52948;60.040;30.320;2023-10-31T12:49:34;2.55;;;1.85;;
66145;SDS011;52948;60.040;30.320;2023-10-31T12:54:37;3.58;;;2.85;;
66145;SDS011;52948;60.040;30.320;2023-10-31T12:59:40;3.85;;;2.42;;
66145;SDS011;52948;60.040;30.320;2023-10-31T13:04:43;4.13;;;2.83;;
66145;SDS011;52948;60.040;30.320;2023-10-31T13:09:45;5.43;;;2.28;;
66145;SDS011;52948;60.040;30.320;2023-10-31T13:14:49;3.05;;;2.42;;
66145;SDS011;52948;60.040;30.320;2023-10-31T13:19:52;3.00;;;1.90;;
66145;SDS011;52948;60.040;30.320;2023-10-31T13:24:54;3.50;;;2.53;;
66145;SDS011;52948;60.040;30.320;2023-10-31T13:29:57;2.28;;;1.80;;
66145;SDS011;52948;60.040;30.320;2023-10-31T13:34:59;2.83;;;2.17;;
66145;SDS011;52948;60.040;30.320;2023-10-31T13:40:04;2.80;;;1.77;;
66145;SDS011;52948;60.040;30.320;2023-10-31T13:45:07;0.93;;;0.88;;
66145;SDS011;52948;60.040;30.320;2023-10-31T13:50:10;2.28;;;2.00;;
66145;SDS011;52948;60.040;30.320;2023-10-31T13:55:13;2.05;;;1.58;;
66145;SDS011;52948;60.040;30.320;2023-10-31T14:00:15;1.77;;;1.67;;
66145;SDS011;52948;60.040;30.320;2023-10-31T14:05:18;2.35;;;1.83;;
66145;SDS011;52948;60.040;30.320;2023-10-31T14:10:20;2.72;;;1.77;;
66145;SDS011;52948;60.040;30.320;2023-10-31T14:15:23;2.42;;;1.70;;
66145;SDS011;52948;60.040;30.320;2023-10-31T14:20:27;1.45;;;1.20;;
66145;SDS011;52948;60.040;30.320;2023-10-31T14:25:29;2.25;;;1.63;;
66145;SDS011;52948;60.040;30.320;2023-10-31T14:30:32;3.42;;;2.17;;
66145;SDS011;52948;60.040;30.320;2023-10-31T14:35:36;0.90;;;0.88;;
66145;SDS011;52948;60.040;30.320;2023-10-31T14:40:39;3.20;;;1.95;;
66145;SDS011;52948;60.040;30.320;2023-10-31T14:45:42;1.67;;;1.00;;
66145;SDS011;52948;60.040;30.320;2023-10-31T14:50:45;2.40;;;1.40;;
66145;SDS011;52948;60.040;30.320;2023-10-31T14:55:47;2.22;;;1.42;;
66145;SDS011;52948;60.040;30.320;2023-10-31T15:00:50;2.85;;;2.05;;
66145;SDS011;52948;60.040;30.320;2023-10-31T15:05:54;3.58;;;1.85;;
66145;SDS011;52948;60.040;30.320;2023-10-31T15:10:57;2.25;;;1.63;;
66145;SDS011;52948;60.040;30.320;2023-10-31T15:15:59;1.63;;;1.52;;
66145;SDS011;52948;60.040;30.320;2023-10-31T15:21:02;0.82;;;0.55;;
66145;SDS011;52948;60.040;30.320;2023-10-31T15:26:05;2.20;;;1.33;;
66145;SDS011;52948;60.040;30.320;2023-10-31T15:31:10;1.38;;;1.17;;
66145;SDS011;52948;60.040;30.320;2023-10-31T15:36:13;2.58;;;2.38;;
66145;SDS011;52948;60.040;30.320;2023-10-31T15:41:16;1.42;;;1.08;;
66145;SDS011;52948;60.040;30.320;2023-10-31T15:46:18;0.93;;;0.77;;
66145;SDS011;52948;60.040;30.320;2023-10-31T15:51:23;1.52;;;1.02;;
66145;SDS011;52948;60.040;30.320;2023-10-31T15:56:26;0.77;;;0.77;;
66145;SDS011;52948;60.040;30.320;2023-10-31T16:01:29;0.77;;;0.63;;
66145;SDS011;52948;60.040;30.320;2023-10-31T16:06:31;1.02;;;0.93;;
66145;SDS011;52948;60.040;30.320;2023-10-31T16:11:33;1.48;;;1.20;;
66145;SDS011;52948;60.040;30.320;2023-10-31T16:16:36;1.15;;;1.00;;
66145;SDS011;52948;60.040;30.320;2023-10-31T16:21:39;3.38;;;1.67;;
66145;SDS011;52948;60.040;30.320;2023-10-31T16:26:42;3.45;;;1.85;;
66145;SDS011;52948;60.040;30.320;2023-10-31T16:31:45;4.47;;;1.95;;
66145;SDS011;52948;60.040;30.320;2023-10-31T16:36:47;1.58;;;1.27;;
66145;SDS011;52948;60.040;30.320;2023-10-31T16:41:49;1.00;;;0.85;;
66145;SDS011;52948;60.040;30.320;2023-10-31T16:46:52;1.60;;;1.50;;
66145;SDS011;52948;60.040;30.320;2023-10-31T16:51:54;1.73;;;1.15;;
66145;SDS011;52948;60.040;30.320;2023-10-31T16:56:56;2.58;;;1.08;;
66145;SDS011;52948;60.040;30.320;2023-10-31T17:01:59;1.33;;;0.95;;
66145;SDS011;52948;60.040;30.320;2023-10-31T17:07:01;2.35;;;1.23;;
66145;SDS011;52948;60.040;30.320;2023-10-31T17:12:04;2.10;;;1.70;;
66145;SDS011;52948;60.040;30.320;2023-10-31T17:17:07;0.98;;;0.90;;
66145;SDS011;52948;60.040;30.320;2023-10-31T17:22:09;2.00;;;0.93;;
66145;SDS011;52948;60.040;30.320;2023-10-31T17:27:11;3.00;;;1.52;;
66145;SDS011;52948;60.040;30.320;2023-10-31T17:32:14;0.93;;;0.63;;
66145;SDS011;52948;60.040;30.320;2023-10-31T17:37:17;1.42;;;1.27;;
66145;SDS011;52948;60.040;30.320;2023-10-31T17:42:19;1.08;;;0.82;;
66145;SDS011;52948;60.040;30.320;2023-10-31T17:47:21;0.95;;;0.90;;
66145;SDS011;52948;60.040;30.320;2023-10-31T17:52:23;1.52;;;1.35;;
66145;SDS011;52948;60.040;30.320;2023-10-31T17:57:27;2.70;;;1.50;;
66145;SDS011;52948;60.040;30.320;2023-10-31T18:02:29;1.13;;;1.13;;
66145;SDS011;52948;60.040;30.320;2023-10-31T18:07:31;0.77;;;0.70;;
66145;SDS011;52948;60.040;30.320;2023-10-31T18:12:33;1.17;;;0.70;;
66145;SDS011;52948;60.040;30.320;2023-10-31T18:17:35;1.58;;;1.10;;
66145;SDS011;52948;60.040;30.320;2023-10-31T18:22:38;1.17;;;1.00;;
66145;SDS011;52948;60.040;30.320;2023-10-31T18:27:40;3.33;;;1.25;;
66145;SDS011;52948;60.040;30.320;2023-10-31T18:32:44;0.82;;;0.82;;
66145;SDS011;52948;60.040;30.320;2023-10-31T18:37:46;2.20;;;0.77;;
66145;SDS011;52948;60.040;30.320;2023-10-31T18:42:50;1.13;;;0.90;;
66145;SDS011;52948;60.040;30.320;2023-10-31T18:47:53;0.95;;;0.90;;
66145;SDS011;52948;60.040;30.320;2023-10-31T18:52:55;0.52;;;0.40;;
66145;SDS011;52948;60.040;30.320;2023-10-31T18:57:57;0.65;;;0.40;;
66145;SDS011;52948;60.040;30.320;2023-10-31T19:02:59;1.00;;;0.90;;
66145;SDS011;52948;60.040;30.320;2023-10-31T19:08:03;1.98;;;0.82;;
66145;SDS011;52948;60.040;30.320;2023-10-31T19:13:06;1.70;;;0.90;;
66145;SDS011;52948;60.040;30.320;2023-10-31T19:18:09;0.20;;;0.20;;
66145;SDS011;52948;60.040;30.320;2023-10-31T19:23:11;0.38;;;0.25;;
66145;SDS011;52948;60.040;30.320;2023-10-31T19:28:13;0.40;;;0.40;;
66145;SDS011;52948;60.040;30.320;2023-10-31T19:33:16;0.55;;;0.40;;
66145;SDS011;52948;60.040;30.320;2023-10-31T19:38:18;0.70;;;0.70;;
66145;SDS011;52948;60.040;30.320;2023-10-31T19:43:20;1.85;;;0.70;;
66145;SDS011;52948;60.040;30.320;2023-10-31T19:48:23;1.13;;;0.68;;
66145;SDS011;52948;60.040;30.320;2023-10-31T19:53:25;0.57;;;0.43;;
66145;SDS011;52948;60.040;30.320;2023-10-31T19:58:27;0.47;;;0.28;;
66145;SDS011;52948;60.040;30.320;2023-10-31T20:03:30;0.50;;;0.50;;
66145;SDS011;52948;60.040;30.320;2023-10-31T20:08:32;0.32;;;0.20;;
66145;SDS011;52948;60.040;30.320;2023-10-31T20:13:34;0.50;;;0.50;;
66145;SDS011;52948;60.040;30.320;2023-10-31T20:18:40;0.30;;;0.30;;
66145;SDS011;52948;60.040;30.320;2023-10-31T20:23:42;0.50;;;0.30;;
66145;SDS011;52948;60.040;30.320;2023-10-31T20:28:44;0.38;;;0.15;;
66145;SDS011;52948;60.040;30.320;2023-10-31T20:33:47;0.28;;;0.28;;
66145;SDS011;52948;60.040;30.320;2023-10-31T20:38:49;0.70;;;0.50;;
66145;SDS011;52948;60.040;30.320;2023-10-31T20:43:51;0.73;;;0.63;;
66145;SDS011;52948;60.040;30.320;2023-10-31T20:48:53;0.55;;;0.40;;
66145;SDS011;52948;60.040;30.320;2023-10-31T20:53:56;0.63;;;0.63;;
66145;SDS011;52948;60.040;30.320;2023-10-31T20:58:58;0.28;;;0.28;;
66145;SDS011;52948;60.040;30.320;2023-10-31T21:04:01;0.50;;;0.50;;
66145;SDS011;52948;60.040;30.320;2023-10-31T21:09:04;0.57;;;0.50;;
66145;SDS011;52948;60.040;30.320;2023-10-31T21:14:07;0.77;;;0.50;;
66145;SDS011;52948;60.040;30.320;2023-10-31T21:19:09;0.47;;;0.40;;
66145;SDS011;52948;60.040;30.320;2023-10-31T21:24:12;0.30;;;0.30;;
66145;SDS011;52948;60.040;30.320;2023-10-31T21:29:14;0.20;;;0.20;;
66145;SDS011;52948;60.040;30.320;2023-10-31T21:34:16;1.25;;;0.28;;
66145;SDS011;52948;60.040;30.320;2023-10-31T21:39:18;1.00;;;0.40;;
66145;SDS011;52948;60.040;30.320;2023-10-31T21:44:22;0.40;;;0.40;;
66145;SDS011;52948;60.040;30.320;2023-10-31T21:49:27;0.32;;;0.25;;
66145;SDS011;52948;60.040;30.320;2023-10-31T21:54:29;0.25;;;0.25;;
66145;SDS011;52948;60.040;30.320;2023-10-31T21:59:33;0.40;;;0.40;;
66145;SDS011;52948;60.040;30.320;2023-10-31T22:04:35;0.40;;;0.30;;
66145;SDS011;52948;60.040;30.320;2023-10-31T22:09:37;0.38;;;0.25;;
66145;SDS011;52948;60.040;30.320;2023-10-31T22:14:39;0.30;;;0.30;;
66145;SDS011;52948;60.040;30.320;2023-10-31T22:19:41;0.10;;;0.10;;
66145;SDS011;52948;60.040;30.320;2023-10-31T22:24:44;0.20;;;0.20;;
66145;SDS011;52948;60.040;30.320;2023-10-31T22:29:46;0.20;;;0.20;;
66145;SDS011;52948;60.040;30.320;2023-10-31T22:34:48;0.77;;;0.20;;
66145;SDS011;52948;60.040;30.320;2023-10-31T22:39:51;0.20;;;0.20;;
66145;SDS011;52948;60.040;30.320;2023-10-31T22:44:56;0.28;;;0.28;;
66145;SDS011;52948;60.040;30.320;2023-10-31T22:49:59;0.43;;;0.20;;
66145;SDS011;52948;60.040;30.320;2023-10-31T22:55:02;0.20;;;0.20;;
66145;SDS011;52948;60.040;30.320;2023-10-31T23:00:06;0.10;;;0.10;;
66145;SDS011;52948;60.040;30.320;2023-10-31T23:05:18;0.30;;;0.22;;
66145;SDS011;52948;60.040;30.320;2023-10-31T23:10:20;0.30;;;0.30;;
66145;SDS011;52948;60.040;30.320;2023-10-31T23:15:23;0.20;;;0.20;;
66145;SDS011;52948;60.040;30.320;2023-10-31T23:20:25;0.20;;;0.20;;
66145;SDS011;52948;60.040;30.320;2023-10-31T23:25:28;0.10;;;0.10;;
66145;SDS011;52948;60.040;30.320;2023-10-31T23:30:31;0.10;;;0.10;;
66145;SDS011;52948;60.040;30.320;2023-10-31T23:35:33;0.20;;;0.20;;
66145;SDS011;52948;60.040;30.320;2023-10-31T23:40:35;0.20;;;0.20;;
66145;SDS011;52948;60.040;30.320;2023-10-31T23:45:39;0.30;;;0.10;;
66145;SDS011;52948;60.040;30.320;2023-10-31T23:50:44;0.15;;;0.15;;
66145;SDS011;52948;60.040;30.320;2023-10-31T23:55:47;0.17;;;0.17;;
